Flight Track Log - Related Links

Times and Time Zones

All times are in EDT time to prevent confusion due to time zone crossing. See the SKW6534 flight status page for this flight to view local times or setup timezone preferences in your user account.

Time Position Orientation Groundspeed Altitude Reporting Facility
EDT Latitude Longitude Course Direction KTS MPH feet Rate Location/Type
Sun 03:22:59 PM 43.4869 -112.1500 262° West 189 217 7,900  Level Salt Center
Sun 03:24:00 PM 43.3019 -111.6728 127° Southeast  Level FlightAware
Sun 03:24:01 PM 43.5369 -112.1119 29° Northeast 244 281 10,100  Level Salt Center
Sun 03:25:00 PM 43.2365 -111.5529 127° Southeast  Level FlightAware
Sun 03:25:03 PM 43.4922 -112.0086 121° Southeast 277 319 12,900  Level Salt Center
Sun 03:26:00 PM 43.1711 -111.4331 127° Southeast  Level FlightAware
Sun 03:26:05 PM 43.4397 -111.9153 128° Southeast 302 348 14,800  Level Salt Center
Sun 03:27:00 PM 43.1071 -111.3121 122° Southeast  Level FlightAware
Sun 03:27:07 PM 43.3747 -111.7961 127° Southeast 335 386 16,600  Level Salt Center
Sun 03:28:08 PM 43.3167 -111.6861 126° Southeast 356 410 18,700 2,000 Climbing Salt Center
Sun 03:29:10 PM 43.2464 -111.5569 127° Southeast 374 430 20,700 1,645 Climbing Salt Center
Sun 03:30:12 PM 43.1856 -111.4447 127° Southeast 382 440 22,100 1,161 Climbing Salt Center
Sun 03:31:14 PM 43.1119 -111.3086 127° Southeast 397 457 23,100 774 Climbing Salt Center
Sun 03:32:16 PM 43.0467 -111.1900 127° Southeast 406 467 23,700 976 Climbing Salt Center
Sun 03:33:17 PM 42.9664 -111.0425 127° Southeast 430 495 25,100 1,073 Climbing Salt Center
Sun 03:34:19 PM 42.8967 -110.9153 127° Southeast 436 502 25,900 677 Climbing Salt Center
Sun 03:35:21 PM 42.8253 -110.7861 127° Southeast 443 510 26,500 871 Climbing Salt Center
Sun 03:36:23 PM 42.7422 -110.6367 127° Southeast 444 511 27,700 823 Climbing Salt Center
Sun 03:37:25 PM 42.6636 -110.4986 128° Southeast 448 516 28,200 488 Climbing Salt Center
Sun 03:38:26 PM 42.5892 -110.3656 127° Southeast 460 529 28,700 732 Climbing Salt Center
Sun 03:39:28 PM 42.5017 -110.2072 127° Southeast 469 540 29,700 871 Climbing Salt Center
Sun 03:40:30 PM 42.4253 -110.0744 128° Southeast 467 537 30,500 919 Climbing Salt Center
Sun 03:41:32 PM 42.3369 -109.9175 127° Southeast 469 540 31,600 871 Climbing Salt Center
Sun 03:42:34 PM 42.2619 -109.7867 128° Southeast 461 531 32,300 634 Climbing Salt Center
Sun 03:43:35 PM 42.1731 -109.6314 128° Southeast 467 537 32,900 341 Climbing Salt Center
Sun 03:44:37 PM 42.0958 -109.4978 128° Southeast 470 541 33,000 48 Climbing Salt Center
Sun 03:45:39 PM 42.0175 -109.3614 128° Southeast 476 548 33,000  Level Salt Center
Sun 03:46:40 PM 41.9231 -109.1972 128° Southeast 489 563 33,000  Level Salt Center
Sun 03:47:42 PM 41.8392 -109.0547 128° Southeast 502 578 33,000  Level Salt Center
Sun 03:48:44 PM 41.7425 -108.8883 128° Southeast 503 579 33,000  Level Salt Center
Sun 03:49:45 PM 41.6569 -108.7456 129° Southeast 508 585 33,000  Level Salt Center
Sun 03:50:47 PM 41.5742 -108.6011 127° Southeast 507 583 33,000  Level Salt Center
Sun 03:51:49 PM 41.4744 -108.4375 129° Southeast 507 583 33,000  Level Salt Center
Sun 03:52:50 PM 41.3958 -108.2906 125° Southeast 508 585 33,000  Level Salt Center
Sun 03:53:52 PM 41.3225 -108.1036 118° Southeast 509 586 33,000  Level Salt Center
Sun 03:54:54 PM 41.2594 -107.9442 118° Southeast 509 586 33,000  Level Salt Center
Sun 03:55:55 PM 41.1928 -107.7900 120° Southeast 504 580 33,000  Level Salt Center
Sun 03:57:10 PM 41.1100 -107.5800 118° Southeast 502 578 33,000  Level Denver Center
Sun 03:58:12 PM 41.0364 -107.3992 118° Southeast 500 575 33,000  Level Denver Center
Sun 03:59:14 PM 40.9725 -107.2447 119° Southeast 500 575 33,000  Level Denver Center
Sun 04:00:16 PM 40.8983 -107.0664 119° Southeast 497 572 33,000  Level Denver Center
Sun 04:01:18 PM 40.8350 -106.9139 119° Southeast 494 568 33,000  Level Denver Center
Sun 04:02:20 PM 40.7603 -106.7358 119° Southeast 497 572 33,000  Level Denver Center
Sun 04:03:22 PM 40.7006 -106.5903 118° Southeast 497 572 33,000  Level Denver Center
Sun 04:04:24 PM 40.6222 -106.4067 119° Southeast 500 575 33,000 -48 Level Denver Center
Sun 04:05:26 PM 40.5572 -106.2556 119° Southeast 498 573 32,900 -1,324 Descending Denver Center
Sun 04:06:40 PM 40.4881 -106.0939 119° Southeast 495 570 30,000 -2,672 Descending Denver Center
Sun 04:07:43 PM 40.4317 -105.9122 112° Southeast 454 522 26,800 -2,688 Descending Denver Center
Sun 04:08:45 PM 40.4067 -105.7558 102° East 436 502 24,400 -2,177 Descending Denver Center
Sun 04:09:47 PM 40.3794 -105.5839 102° East 411 473 22,300 -1,839 Descending Denver Center
Sun 04:10:49 PM 40.3550 -105.4436 103° East 394 453 20,600 -1,597 Descending Denver Center
Sun 04:11:51 PM 40.3169 -105.3200 112° Southeast 369 425 19,000 -1,548 Descending Denver Center
Sun 04:12:53 PM 40.2867 -105.1994 108° East 352 405 17,400 -1,597 Descending Denver Center
Sun 04:13:55 PM 40.2525 -105.0725 109° East 345 397 15,700 -1,597 Descending Denver Center
Sun 04:14:57 PM 40.1819 -104.9969 141° Southeast 324 373 14,100 -1,306 Descending Denver Center
Sun 04:15:59 PM 40.1025 -104.9239 145° Southeast 321 369 13,000 -532 Descending Denver Center
Sun 04:17:01 PM 40.0297 -104.8581 145° Southeast 318 366 13,000 -44 Level Denver Center
Sun 04:18:15 PM 39.9483 -104.7914 148° Southeast 325 374 12,900 -750 Descending Denver Center
Sun 04:19:17 PM 39.8497 -104.7831 176° South 294 338 11,300 -864 Descending Denver Center
Sun 04:20:20 PM 39.7800 -104.7792 178° South 250 288 11,100 -576 Descending Denver Center
Sun 04:21:22 PM 39.7108 -104.7739 177° South 234 269 10,100 -823 Descending Denver Center
Sun 04:22:24 PM 39.6625 -104.7347 148° Southeast 242 278 9,400 -677 Descending Denver Center

Login

Don't have an account? Register now (free) for customized features, flight alerts, and more!